Time;durP1;ratioP1;P1;durP2;ratioP2;P2;SDS_P1;SDS_P2;PMS_P1;PMS_P2;Temp;Humidity;BMP_temperature;BMP_pressure;BME280_temperature;BME280_humidity;BME280_pressure;Samples;Min_cycle;Max_cycle;Signal;HPM_P1;HPM_P2
2020/12/22 00:00:32;;;;;;;2.10;1.90;;;12.00;81.80;;;;;;5040697;28;20052;-73
2020/12/22 00:02:58;;;;;;;2.70;2.10;;;12.10;81.80;;;;;;5037111;28;20026;-73
2020/12/22 00:05:23;;;;;;;2.42;2.10;;;12.10;81.80;;;;;;5038971;28;20026;-76
2020/12/22 00:07:49;;;;;;;2.35;2.08;;;12.10;81.80;;;;;;5047460;28;20033;-73
2020/12/22 00:10:15;;;;;;;2.10;1.80;;;12.10;81.80;;;;;;5043825;28;20041;-72
2020/12/22 00:12:41;;;;;;;2.10;1.90;;;12.10;81.90;;;;;;5033482;28;20417;-74
2020/12/22 00:15:08;;;;;;;2.30;2.10;;;12.20;81.80;;;;;;5037424;28;20033;-73
2020/12/22 00:17:34;;;;;;;2.17;1.88;;;12.20;81.80;;;;;;5041069;28;20036;-73
2020/12/22 00:19:59;;;;;;;2.55;2.20;;;12.20;81.80;;;;;;5035086;28;20029;-73
2020/12/22 00:22:25;;;;;;;2.20;1.90;;;12.20;81.80;;;;;;5022084;28;20115;-73
2020/12/22 00:24:51;;;;;;;2.10;1.90;;;12.20;81.70;;;;;;5043620;28;20037;-73
2020/12/22 00:27:17;;;;;;;1.90;1.80;;;12.30;81.80;;;;;;5031204;28;20030;-73
2020/12/22 00:29:42;;;;;;;2.35;2.03;;;12.30;81.80;;;;;;5039629;28;20037;-73
2020/12/22 00:32:08;;;;;;;1.75;1.65;;;12.30;81.70;;;;;;5031713;28;20049;-73
2020/12/22 00:34:34;;;;;;;2.50;2.08;;;12.30;81.70;;;;;;5031134;28;20405;-73
2020/12/22 00:37:00;;;;;;;2.63;2.30;;;12.30;81.70;;;;;;5030885;28;20044;-73
2020/12/22 00:39:27;;;;;;;2.28;2.00;;;12.40;81.70;;;;;;5034574;28;20033;-72
2020/12/22 00:41:53;;;;;;;2.08;1.88;;;12.40;81.70;;;;;;5037728;28;20025;-73
2020/12/22 00:44:20;;;;;;;2.42;2.05;;;12.40;81.70;;;;;;5039821;28;20025;-73
2020/12/22 00:46:46;;;;;;;2.28;2.08;;;12.40;81.70;;;;;;5038632;28;20108;-73
2020/12/22 00:49:12;;;;;;;2.00;1.77;;;12.40;81.70;;;;;;5024897;28;20127;-72
2020/12/22 00:51:38;;;;;;;1.83;1.70;;;12.50;81.70;;;;;;5032323;28;20172;-74
2020/12/22 00:54:03;;;;;;;2.20;2.00;;;12.50;81.70;;;;;;5035111;28;20191;-73
2020/12/22 00:56:29;;;;;;;2.00;1.80;;;12.50;81.70;;;;;;5051732;28;20025;-74
2020/12/22 00:59:01;;;;;;;2.00;1.80;;;12.50;81.70;;;;;;5038816;28;20037;-73
2020/12/22 01:01:30;;;;;;;2.20;2.00;;;12.60;81.70;;;;;;5030702;28;20034;-74
2020/12/22 01:03:59;;;;;;;2.00;1.80;;;12.60;81.70;;;;;;5025617;28;20040;-73
2020/12/22 01:06:26;;;;;;;2.10;1.90;;;12.60;81.70;;;;;;5044904;28;20025;-73
2020/12/22 01:08:52;;;;;;;2.20;2.00;;;12.70;81.70;;;;;;5039575;28;20243;-74
2020/12/22 01:11:19;;;;;;;2.25;2.00;;;12.60;81.60;;;;;;5031851;28;20046;-73
2020/12/22 01:13:45;;;;;;;2.00;1.80;;;12.70;81.70;;;;;;5034097;28;20466;-73
2020/12/22 01:16:11;;;;;;;2.10;1.90;;;12.70;81.60;;;;;;5040507;28;20128;-72
2020/12/22 01:18:37;;;;;;;1.92;1.73;;;12.70;81.60;;;;;;5043503;28;20065;-73
2020/12/22 01:21:03;;;;;;;2.03;1.80;;;12.70;81.60;;;;;;5040247;28;20025;-72
2020/12/22 01:23:29;;;;;;;1.88;1.67;;;12.70;81.60;;;;;;5019792;28;20029;-74
2020/12/22 01:25:55;;;;;;;1.88;1.70;;;12.80;81.60;;;;;;5039863;28;20048;-73
2020/12/22 01:28:20;;;;;;;2.15;1.90;;;12.80;81.60;;;;;;5036693;28;20032;-76
2020/12/22 01:30:46;;;;;;;2.17;1.98;;;12.80;81.60;;;;;;5037670;28;20057;-72
2020/12/22 01:33:12;;;;;;;1.90;1.80;;;12.80;81.70;;;;;;5036321;28;20868;-73
2020/12/22 01:35:37;;;;;;;1.90;1.70;;;12.90;81.60;;;;;;5012832;28;20037;-73
2020/12/22 01:38:03;;;;;;;1.80;1.70;;;12.90;81.60;;;;;;5033738;28;20025;-72
2020/12/22 01:40:29;;;;;;;1.90;1.75;;;12.90;81.60;;;;;;5025638;28;20032;-72
2020/12/22 01:42:54;;;;;;;1.80;1.70;;;12.90;81.60;;;;;;5031522;28;20107;-73
2020/12/22 01:45:20;;;;;;;1.80;1.70;;;13.00;81.60;;;;;;5044439;28;20028;-74
2020/12/22 01:47:48;;;;;;;1.80;1.70;;;13.00;81.60;;;;;;5033162;28;20033;-73
2020/12/22 01:50:16;;;;;;;1.55;1.45;;;13.00;81.60;;;;;;5025520;28;20761;-72
2020/12/22 01:52:43;;;;;;;1.67;1.58;;;13.00;81.60;;;;;;5030552;28;20029;-73
2020/12/22 01:55:09;;;;;;;1.90;1.70;;;13.00;81.60;;;;;;5037151;28;20473;-73
2020/12/22 01:57:35;;;;;;;1.88;1.33;;;13.00;81.50;;;;;;5029963;28;20100;-76
2020/12/22 02:00:02;;;;;;;1.60;1.50;;;13.10;81.50;;;;;;5031705;28;20120;-73
2020/12/22 02:02:30;;;;;;;1.50;1.40;;;13.10;81.60;;;;;;5031326;28;20103;-73
2020/12/22 02:04:56;;;;;;;1.50;1.40;;;13.10;81.50;;;;;;5039161;28;20413;-76
2020/12/22 02:07:21;;;;;;;1.77;1.60;;;13.10;81.50;;;;;;5039916;28;20028;-73
2020/12/22 02:09:49;;;;;;;1.58;1.48;;;13.20;81.60;;;;;;5034549;28;20068;-73
2020/12/22 02:12:18;;;;;;;1.60;1.50;;;13.20;81.50;;;;;;5033678;28;20029;-73
2020/12/22 02:14:45;;;;;;;1.40;1.30;;;13.20;81.50;;;;;;5024472;28;20033;-73
2020/12/22 02:17:11;;;;;;;1.63;1.52;;;13.20;81.50;;;;;;5032202;28;20493;-73
2020/12/22 02:19:36;;;;;;;1.50;1.40;;;13.20;81.50;;;;;;5034510;28;20470;-73
2020/12/22 02:22:06;;;;;;;1.40;1.30;;;13.30;82.20;;;;;;5032272;28;20048;-73
2020/12/22 02:24:33;;;;;;;1.40;1.30;;;13.30;81.50;;;;;;5041875;28;20040;-73
2020/12/22 02:27:00;;;;;;;1.30;1.20;;;13.30;81.50;;;;;;5027913;28;20632;-75
2020/12/22 02:29:26;;;;;;;1.25;1.15;;;13.30;81.50;;;;;;5036599;28;20109;-72
2020/12/22 02:31:52;;;;;;;1.20;1.20;;;13.40;81.50;;;;;;5028207;28;20391;-73
2020/12/22 02:34:18;;;;;;;1.20;1.20;;;13.40;81.50;;;;;;5033786;28;20178;-73
2020/12/22 02:36:43;;;;;;;1.20;1.10;;;13.40;81.50;;;;;;5039598;28;20025;-73
2020/12/22 02:39:09;;;;;;;1.15;1.13;;;13.40;81.50;;;;;;5042610;28;20385;-73
2020/12/22 02:41:35;;;;;;;1.27;1.20;;;13.40;81.50;;;;;;5029180;28;20037;-74
2020/12/22 02:44:01;;;;;;;1.20;1.20;;;13.40;81.50;;;;;;5038203;28;20044;-72
2020/12/22 02:46:26;;;;;;;1.30;1.20;;;13.50;81.50;;;;;;5041635;28;20033;-73
2020/12/22 02:48:52;;;;;;;1.27;1.17;;;13.50;81.50;;;;;;5037756;28;20465;-74
2020/12/22 02:51:19;;;;;;;1.00;1.00;;;13.50;81.50;;;;;;5030733;28;20033;-73
2020/12/22 02:53:45;;;;;;;1.10;1.10;;;13.50;81.50;;;;;;5022696;28;20131;-73
2020/12/22 02:56:10;;;;;;;1.10;1.00;;;13.50;81.50;;;;;;5032035;28;20057;-73
2020/12/22 02:58:37;;;;;;;0.90;0.90;;;13.50;81.40;;;;;;5030838;28;20029;-73
2020/12/22 03:01:02;;;;;;;1.20;1.10;;;13.50;81.40;;;;;;5034497;28;20029;-73
2020/12/22 03:03:28;;;;;;;1.10;1.10;;;13.60;81.40;;;;;;5030288;28;20450;-73
2020/12/22 03:05:54;;;;;;;0.90;0.90;;;13.60;81.40;;;;;;5041296;28;20507;-73
2020/12/22 03:08:20;;;;;;;0.90;0.90;;;13.60;81.40;;;;;;5043291;28;20033;-73
2020/12/22 03:10:45;;;;;;;0.90;0.90;;;13.60;81.40;;;;;;5041943;28;20075;-73
2020/12/22 03:13:11;;;;;;;1.02;1.02;;;13.60;81.40;;;;;;5033313;28;20041;-75
2020/12/22 03:15:37;;;;;;;1.02;1.00;;;13.70;81.40;;;;;;5044151;28;20045;-74
2020/12/22 03:18:05;;;;;;;1.10;1.10;;;13.70;81.40;;;;;;5021286;28;20032;-76
2020/12/22 03:20:31;;;;;;;1.10;1.10;;;13.70;81.40;;;;;;5035768;28;20025;-75
2020/12/22 03:22:56;;;;;;;1.08;1.08;;;13.70;81.40;;;;;;5044145;28;20100;-74
2020/12/22 03:25:22;;;;;;;1.00;1.00;;;13.70;81.40;;;;;;5036222;28;20040;-73
2020/12/22 03:27:48;;;;;;;1.00;1.00;;;13.70;81.40;;;;;;5039704;28;20036;-75
2020/12/22 03:30:15;;;;;;;0.90;0.90;;;13.70;81.40;;;;;;5037679;28;20026;-73
2020/12/22 03:32:41;;;;;;;1.00;1.00;;;13.80;81.40;;;;;;5044339;28;20603;-73
2020/12/22 03:35:09;;;;;;;1.20;1.10;;;13.80;81.40;;;;;;5049337;28;20037;-73
2020/12/22 03:37:36;;;;;;;1.33;1.23;;;13.80;81.40;;;;;;5027473;28;20029;-73
2020/12/22 03:40:05;;;;;;;1.23;1.13;;;13.80;81.40;;;;;;5032964;28;20108;-73
2020/12/22 03:42:31;;;;;;;1.20;1.20;;;13.80;81.40;;;;;;5029483;28;20031;-73
2020/12/22 03:44:57;;;;;;;1.10;1.10;;;13.90;82.10;;;;;;5046062;28;20373;-74
2020/12/22 03:47:23;;;;;;;1.20;1.00;;;13.90;81.40;;;;;;5024948;28;20017;-73
2020/12/22 03:49:49;;;;;;;1.30;1.20;;;13.90;81.50;;;;;;5031857;28;20035;-74
2020/12/22 03:52:15;;;;;;;1.08;1.08;;;13.90;81.40;;;;;;5037817;28;20112;-73
2020/12/22 03:54:41;;;;;;;1.10;1.10;;;13.90;81.50;;;;;;5014477;28;20041;-73
2020/12/22 03:57:07;;;;;;;1.00;1.00;;;13.90;81.40;;;;;;5039303;28;20108;-77
2020/12/22 03:59:33;;;;;;;1.10;1.10;;;13.90;81.40;;;;;;5057029;28;20040;-73
2020/12/22 04:02:03;;;;;;;1.40;1.30;;;13.90;81.40;;;;;;5038815;28;20074;-72
2020/12/22 04:04:29;;;;;;;1.20;1.10;;;13.90;81.40;;;;;;5032792;28;20057;-72
2020/12/22 04:06:55;;;;;;;1.10;1.05;;;14.00;81.50;;;;;;5021480;28;20025;-73
2020/12/22 04:09:22;;;;;;;1.00;1.00;;;14.00;81.50;;;;;;5037498;28;20025;-74
2020/12/22 04:11:49;;;;;;;1.10;1.10;;;14.00;81.50;;;;;;5031554;28;20037;-73
2020/12/22 04:14:15;;;;;;;1.00;1.00;;;14.00;81.50;;;;;;5042918;28;20112;-73
2020/12/22 04:16:41;;;;;;;1.15;1.05;;;14.00;81.40;;;;;;5036905;28;20033;-73
2020/12/22 04:19:07;;;;;;;0.85;0.85;;;14.00;81.40;;;;;;5028922;28;20032;-74
2020/12/22 04:21:34;;;;;;;1.10;1.10;;;14.10;81.50;;;;;;5041485;28;20123;-74
2020/12/22 04:24:00;;;;;;;1.00;1.00;;;14.00;81.50;;;;;;5031311;28;20462;-74
2020/12/22 04:26:27;;;;;;;1.00;1.00;;;14.10;81.50;;;;;;5033415;28;20060;-73
2020/12/22 04:28:53;;;;;;;1.17;1.17;;;14.10;81.60;;;;;;5030035;28;20028;-73
2020/12/22 04:31:22;;;;;;;1.00;1.00;;;14.10;81.50;;;;;;5038875;28;20436;-73
2020/12/22 04:33:52;;;;;;;1.10;1.10;;;14.10;81.50;;;;;;5050061;28;20460;-73
2020/12/22 04:36:20;;;;;;;1.20;1.10;;;14.10;81.50;;;;;;5041647;28;20045;-73
2020/12/22 04:38:46;;;;;;;1.13;1.02;;;14.10;81.50;;;;;;5040325;28;20111;-73
2020/12/22 04:41:13;;;;;;;1.10;1.10;;;14.10;81.50;;;;;;5034702;28;20115;-73
2020/12/22 04:43:40;;;;;;;1.05;1.00;;;14.10;81.50;;;;;;5034516;28;20041;-73
2020/12/22 04:46:07;;;;;;;1.10;1.08;;;14.10;82.10;;;;;;5018396;28;20473;-74
2020/12/22 04:48:37;;;;;;;1.95;1.10;;;14.10;81.50;;;;;;5002738;28;20083;-73
2020/12/22 04:51:07;;;;;;;1.05;1.05;;;14.20;81.60;;;;;;5033050;28;20021;-73
2020/12/22 04:53:34;;;;;;;1.00;1.00;;;14.20;81.60;;;;;;5042488;28;20029;-73
2020/12/22 04:56:01;;;;;;;1.00;0.98;;;14.20;81.60;;;;;;5031986;28;20021;-73
2020/12/22 04:58:28;;;;;;;1.08;1.05;;;14.20;81.60;;;;;;5034440;28;20063;-73
2020/12/22 05:00:58;;;;;;;1.20;1.10;;;14.20;81.60;;;;;;5031534;28;20567;-74
2020/12/22 05:03:24;;;;;;;1.20;1.10;;;14.20;81.60;;;;;;5024052;28;20100;-73
2020/12/22 05:05:51;;;;;;;1.02;1.00;;;14.20;81.60;;;;;;5028598;28;20024;-73
2020/12/22 05:08:17;;;;;;;1.15;1.08;;;14.20;81.60;;;;;;5041916;28;20032;-76
2020/12/22 05:10:44;;;;;;;1.10;1.00;;;14.20;81.60;;;;;;5039312;28;20048;-73
2020/12/22 05:13:11;;;;;;;1.23;1.10;;;14.20;81.60;;;;;;5043658;28;20041;-73
2020/12/22 05:15:43;;;;;;;1.10;1.00;;;14.20;81.70;;;;;;5038299;28;20051;-73
2020/12/22 05:18:10;;;;;;;1.00;1.00;;;14.20;81.70;;;;;;5003703;28;20493;-73
2020/12/22 05:20:46;;;;;;;0.90;0.90;;;14.20;81.60;;;;;;5034387;28;20025;-73
2020/12/22 05:23:14;;;;;;;1.80;1.00;;;14.20;81.70;;;;;;5036166;28;20033;-73
2020/12/22 05:25:40;;;;;;;1.00;1.00;;;14.20;81.60;;;;;;5021933;28;20033;-74
2020/12/22 05:28:07;;;;;;;0.95;0.93;;;14.30;81.70;;;;;;5039433;28;20042;-73
2020/12/22 05:30:36;;;;;;;1.00;1.00;;;14.30;81.70;;;;;;5017445;28;20385;-73
2020/12/22 05:33:03;;;;;;;1.33;1.17;;;14.30;81.70;;;;;;5033280;28;20053;-73
2020/12/22 05:35:36;;;;;;;0.90;0.90;;;14.30;81.70;;;;;;5036840;28;20120;-73
2020/12/22 05:38:04;;;;;;;1.05;1.02;;;14.30;81.70;;;;;;5043991;28;20025;-73
2020/12/22 05:40:29;;;;;;;1.58;1.10;;;14.30;81.70;;;;;;5036202;28;20021;-73
2020/12/22 05:42:58;;;;;;;2.42;1.20;;;14.30;81.70;;;;;;5039616;28;20508;-73
2020/12/22 05:45:24;;;;;;;1.00;1.00;;;14.30;81.70;;;;;;5038444;28;20025;-74
2020/12/22 05:47:53;;;;;;;1.23;1.13;;;14.30;81.70;;;;;;5043201;28;20036;-74
2020/12/22 05:50:21;;;;;;;1.30;1.20;;;14.30;81.70;;;;;;5036178;28;20025;-74
2020/12/22 05:52:51;;;;;;;1.00;1.00;;;14.30;81.70;;;;;;5035678;28;20114;-73
2020/12/22 05:55:27;;;;;;;1.00;1.00;;;14.30;81.70;;;;;;5031873;28;20029;-73
2020/12/22 05:58:10;;;;;;;1.05;1.00;;;14.30;81.70;;;;;;5032765;28;20029;-73
2020/12/22 06:00:41;;;;;;;1.00;1.00;;;14.30;81.80;;;;;;5037726;28;20138;-73
2020/12/22 06:03:15;;;;;;;1.02;1.00;;;14.30;81.70;;;;;;5032181;28;20033;-73
2020/12/22 06:05:43;;;;;;;;;;;14.30;82.40;;;;;;5018399;28;20514;-74
2020/12/22 06:08:13;;;;;;;1.08;0.98;;;14.30;81.70;;;;;;5037346;28;19909;-73
2020/12/22 06:10:40;;;;;;;1.00;1.00;;;14.40;81.60;;;;;;5034359;28;20179;-73
2020/12/22 06:13:08;;;;;;;1.27;1.00;;;14.30;81.70;;;;;;5032419;28;20600;-74
2020/12/22 06:15:35;;;;;;;1.25;1.08;;;14.30;81.70;;;;;;5032464;28;20033;-73
2020/12/22 06:18:01;;;;;;;1.10;1.00;;;14.30;81.80;;;;;;5038996;28;20723;-74
2020/12/22 06:20:28;;;;;;;1.77;1.17;;;14.30;81.80;;;;;;5031294;28;20044;-73
2020/12/22 06:23:04;;;;;;;1.23;1.13;;;14.30;81.90;;;;;;5035335;28;20037;-73
2020/12/22 06:25:31;;;;;;;1.35;1.20;;;14.30;81.90;;;;;;5039501;28;20025;-73
2020/12/22 06:27:57;;;;;;;1.13;1.10;;;14.30;81.80;;;;;;5015336;28;20059;-73
2020/12/22 06:30:37;;;;;;;1.50;1.20;;;14.30;81.90;;;;;;5017333;28;20025;-73
2020/12/22 06:33:24;;;;;;;1.48;1.20;;;14.30;81.90;;;;;;5022752;28;20132;-72
2020/12/22 06:36:05;;;;;;;1.80;1.33;;;14.30;81.90;;;;;;5034502;28;20033;-73
2020/12/22 06:38:54;;;;;;;1.42;1.33;;;14.30;81.80;;;;;;5036292;28;20021;-73
2020/12/22 06:41:35;;;;;;;2.05;1.40;;;14.30;81.90;;;;;;5030250;28;20033;-73
2020/12/22 06:44:27;;;;;;;1.83;1.70;;;14.30;81.80;;;;;;5038213;28;20032;-73
2020/12/22 06:46:56;;;;;;;1.90;1.35;;;14.30;81.90;;;;;;5031242;28;20087;-74
2020/12/22 06:49:53;;;;;;;2.28;1.83;;;14.30;81.80;;;;;;5028347;28;20504;-75
2020/12/22 06:52:38;;;;;;;2.25;1.70;;;14.40;81.90;;;;;;5036922;28;20029;-73
2020/12/22 06:55:06;;;;;;;2.53;1.85;;;14.30;81.90;;;;;;5025247;28;20033;-74
2020/12/22 06:57:42;;;;;;;2.35;2.10;;;14.30;81.80;;;;;;5028814;28;20037;-73
2020/12/22 07:00:34;;;;;;;2.30;1.90;;;14.30;81.90;;;;;;5044931;28;20481;-73
2020/12/22 07:03:22;;;;;;;1.92;1.73;;;14.30;81.90;;;;;;5035253;28;20535;-73
2020/12/22 07:05:49;;;;;;;2.15;1.92;;;14.30;81.90;;;;;;5045279;28;20029;-74
2020/12/22 07:08:17;;;;;;;2.60;1.92;;;14.30;81.80;;;;;;5037294;28;20105;-74
2020/12/22 07:10:52;;;;;;;3.35;1.90;;;14.30;81.90;;;;;;5030961;28;20040;-74
2020/12/22 07:13:19;;;;;;;3.25;1.98;;;14.30;81.90;;;;;;5031713;28;20034;-75
2020/12/22 07:15:51;;;;;;;2.67;2.08;;;14.30;81.90;;;;;;5035699;28;20059;-73
2020/12/22 07:18:19;;;;;;;2.85;1.90;;;14.30;81.90;;;;;;5034102;28;20029;-73
2020/12/22 07:20:46;;;;;;;3.72;1.95;;;14.30;81.90;;;;;;5041157;28;20535;-73
2020/12/22 07:23:13;;;;;;;4.20;2.20;;;14.40;81.90;;;;;;5014194;28;20041;-74
2020/12/22 07:25:40;;;;;;;2.38;2.05;;;14.30;81.90;;;;;;5037974;28;20108;-73
2020/12/22 07:28:08;;;;;;;2.53;2.05;;;14.40;82.00;;;;;;5034971;28;20095;-76
2020/12/22 07:30:34;;;;;;;2.97;2.10;;;14.40;82.00;;;;;;5038182;28;20032;-73
2020/12/22 07:33:02;;;;;;;2.20;2.00;;;14.30;81.90;;;;;;5032137;28;20033;-73
2020/12/22 07:35:28;;;;;;;2.28;1.90;;;14.40;81.90;;;;;;5034277;28;20469;-74
2020/12/22 07:38:08;;;;;;;2.72;1.90;;;14.40;81.90;;;;;;5050170;28;20466;-73
2020/12/22 07:40:38;;;;;;;2.60;1.88;;;14.40;82.00;;;;;;5035748;28;20034;-74
2020/12/22 07:43:13;;;;;;;2.08;1.80;;;14.40;81.90;;;;;;5033715;28;20033;-73
2020/12/22 07:45:50;;;;;;;3.05;1.83;;;14.40;81.90;;;;;;5021960;28;20030;-74
2020/12/22 07:48:16;;;;;;;1.50;1.40;;;14.40;81.90;;;;;;5025720;28;20036;-73
2020/12/22 07:50:42;;;;;;;2.67;1.50;;;14.40;81.90;;;;;;5020758;28;20033;-74
2020/12/22 07:53:08;;;;;;;2.63;1.50;;;14.40;81.90;;;;;;5031991;28;20359;-73
2020/12/22 07:55:40;;;;;;;1.95;1.40;;;14.40;81.90;;;;;;5027005;28;20495;-73
2020/12/22 07:58:07;;;;;;;2.10;1.42;;;14.40;82.00;;;;;;5033843;28;20036;-74
2020/12/22 08:00:33;;;;;;;2.53;1.30;;;14.40;82.00;;;;;;5039799;28;20045;-73
2020/12/22 08:03:13;;;;;;;1.75;1.23;;;14.40;82.00;;;;;;5039139;28;20036;-73
2020/12/22 08:05:39;;;;;;;1.73;1.27;;;14.40;82.00;;;;;;5037416;28;20029;-76
2020/12/22 08:08:04;;;;;;;1.85;1.30;;;14.40;82.00;;;;;;5034368;28;20417;-76
2020/12/22 08:10:30;;;;;;;2.85;1.30;;;14.40;82.00;;;;;;5033513;28;20041;-74
2020/12/22 08:12:58;;;;;;;1.65;1.10;;;14.40;82.00;;;;;;5017283;28;20040;-76
2020/12/22 08:15:24;;;;;;;2.40;1.40;;;14.40;82.00;;;;;;5032983;28;20037;-75
2020/12/22 08:17:54;;;;;;;2.13;1.13;;;14.30;82.00;;;;;;5036688;28;20021;-74
2020/12/22 08:20:20;;;;;;;1.92;1.13;;;14.30;82.00;;;;;;5036350;28;20037;-74
2020/12/22 08:22:46;;;;;;;3.38;1.33;;;14.30;82.00;;;;;;5031416;28;20056;-76
2020/12/22 08:25:12;;;;;;;2.03;1.17;;;14.30;82.00;;;;;;5035622;28;20033;-75
2020/12/22 08:27:38;;;;;;;1.77;1.13;;;14.30;82.00;;;;;;5013874;28;20087;-74
2020/12/22 08:30:20;;;;;;;1.40;1.05;;;14.30;82.00;;;;;;5025316;28;20038;-73
2020/12/22 08:32:46;;;;;;;3.03;1.30;;;14.30;82.10;;;;;;5034123;28;20036;-74
2020/12/22 08:35:20;;;;;;;2.17;1.27;;;14.30;82.00;;;;;;5033586;28;20390;-74
2020/12/22 08:37:46;;;;;;;1.85;0.98;;;14.30;82.10;;;;;;5035166;28;20034;-74
2020/12/22 08:40:26;;;;;;;1.38;0.95;;;14.30;82.00;;;;;;5037819;28;20363;-75
2020/12/22 08:42:52;;;;;;;1.52;1.10;;;14.30;82.10;;;;;;5034700;28;20111;-74
2020/12/22 08:45:17;;;;;;;1.70;1.08;;;14.30;82.00;;;;;;5032381;28;20963;-76
2020/12/22 08:47:53;;;;;;;2.58;1.33;;;14.30;82.00;;;;;;5035958;28;20069;-77
2020/12/22 08:50:19;;;;;;;2.67;1.20;;;14.30;82.10;;;;;;5016071;28;20597;-75
2020/12/22 08:52:45;;;;;;;3.72;1.05;;;14.30;82.10;;;;;;5031652;28;20044;-74
2020/12/22 08:55:12;;;;;;;3.88;1.00;;;14.30;82.20;;;;;;5033318;28;20029;-75
2020/12/22 08:57:38;;;;;;;3.13;0.95;;;14.30;82.20;;;;;;5030401;28;20143;-75
2020/12/22 09:00:14;;;;;;;2.63;1.13;;;14.40;82.20;;;;;;5017525;28;20120;-77
2020/12/22 09:02:41;;;;;;;2.28;0.98;;;14.30;82.20;;;;;;5030027;28;20057;-74
2020/12/22 09:05:14;;;;;;;2.80;1.08;;;14.40;82.20;;;;;;5022129;28;20036;-76
2020/12/22 09:07:40;;;;;;;2.17;1.10;;;14.30;82.20;;;;;;5024066;28;20508;-75
2020/12/22 09:10:11;;;;;;;3.35;1.15;;;14.40;82.20;;;;;;5030925;28;20056;-74
2020/12/22 09:12:37;;;;;;;2.25;0.82;;;14.40;82.30;;;;;;5036940;28;20136;-74
2020/12/22 09:15:07;;;;;;;2.25;0.90;;;14.40;82.30;;;;;;5036423;28;20033;-75
2020/12/22 09:17:33;;;;;;;2.00;0.90;;;14.40;82.30;;;;;;5039796;28;20031;-73
2020/12/22 09:20:01;;;;;;;1.88;0.85;;;14.40;82.30;;;;;;5038436;28;20029;-73
2020/12/22 09:22:28;;;;;;;2.97;1.00;;;14.30;82.30;;;;;;5037578;28;20029;-73
2020/12/22 09:24:59;;;;;;;2.45;1.23;;;14.30;82.30;;;;;;5035161;28;20045;-75
2020/12/22 09:27:35;;;;;;;2.75;0.98;;;14.30;82.30;;;;;;5040960;28;20024;-74
2020/12/22 09:30:05;;;;;;;1.58;0.95;;;14.30;82.30;;;;;;5034626;28;20116;-74
2020/12/22 09:32:31;;;;;;;2.33;1.00;;;14.40;82.40;;;;;;5032159;28;20124;-73
2020/12/22 09:34:56;;;;;;;2.78;1.00;;;14.30;82.30;;;;;;5019977;28;20136;-73
2020/12/22 09:37:24;;;;;;;1.35;0.75;;;14.40;82.30;;;;;;5032253;28;20025;-73
2020/12/22 09:39:51;;;;;;;1.80;1.08;;;14.40;82.30;;;;;;5041034;28;20060;-74
2020/12/22 09:42:18;;;;;;;2.30;1.00;;;14.40;82.30;;;;;;5039441;28;20044;-74
2020/12/22 09:44:44;;;;;;;3.20;0.90;;;14.40;82.40;;;;;;5039735;28;20030;-74
2020/12/22 09:47:09;;;;;;;2.85;0.93;;;14.40;82.40;;;;;;5034403;28;20067;-76
2020/12/22 09:49:35;;;;;;;2.05;0.93;;;14.30;82.30;;;;;;5032232;28;20508;-74
2020/12/22 09:52:02;;;;;;;3.10;0.98;;;14.40;82.30;;;;;;5042431;28;20397;-75
2020/12/22 09:54:28;;;;;;;3.05;1.00;;;14.40;82.40;;;;;;5041401;28;20060;-76
2020/12/22 09:56:54;;;;;;;2.40;0.98;;;14.40;82.40;;;;;;5041426;28;20472;-75
2020/12/22 09:59:19;;;;;;;1.27;0.90;;;14.40;82.30;;;;;;5030964;28;20033;-75
2020/12/22 10:01:46;;;;;;;2.38;1.00;;;14.40;82.40;;;;;;5041412;28;20029;-76
2020/12/22 10:04:12;;;;;;;1.35;1.00;;;14.40;82.40;;;;;;5049386;28;20040;-75
2020/12/22 10:06:38;;;;;;;2.35;1.10;;;14.40;82.40;;;;;;5040122;28;20044;-75
2020/12/22 10:09:04;;;;;;;2.35;0.95;;;14.40;82.30;;;;;;5037323;28;20381;-76
2020/12/22 10:11:34;;;;;;;1.50;0.90;;;14.40;82.30;;;;;;5047223;28;20048;-75
2020/12/22 10:13:59;;;;;;;1.40;0.93;;;14.40;82.40;;;;;;5046921;28;20034;-74
2020/12/22 10:16:25;;;;;;;3.80;0.90;;;14.40;82.30;;;;;;5030634;28;20040;-75
2020/12/22 10:18:51;;;;;;;1.30;0.90;;;14.40;82.30;;;;;;5036340;28;20034;-74
2020/12/22 10:21:19;;;;;;;2.00;0.90;;;14.40;82.30;;;;;;5032640;28;20060;-75
2020/12/22 10:23:46;;;;;;;1.35;0.85;;;14.40;82.40;;;;;;5041346;28;20487;-75
2020/12/22 10:26:15;;;;;;;2.08;0.90;;;14.40;82.30;;;;;;5033638;28;20446;-74
2020/12/22 10:28:42;;;;;;;1.40;0.98;;;14.40;82.30;;;;;;5045688;28;20025;-79
2020/12/22 10:31:16;;;;;;;2.70;1.00;;;14.40;82.30;;;;;;5031693;28;20025;-76
2020/12/22 10:33:43;;;;;;;2.13;1.00;;;14.40;82.30;;;;;;5039915;28;20528;-75
2020/12/22 10:36:16;;;;;;;2.88;1.13;;;14.40;82.30;;;;;;5040947;28;20057;-75
2020/12/22 10:38:42;;;;;;;1.65;1.00;;;14.40;82.40;;;;;;5030240;28;20040;-75
2020/12/22 10:41:08;;;;;;;1.70;0.93;;;14.40;82.30;;;;;;5020538;28;20405;-77
2020/12/22 10:43:34;;;;;;;3.22;1.20;;;14.40;82.30;;;;;;5043552;28;20029;-74
2020/12/22 10:46:00;;;;;;;1.90;1.00;;;14.40;82.30;;;;;;5032242;28;20497;-72
2020/12/22 10:48:27;;;;;;;1.35;1.00;;;14.40;82.40;;;;;;4987621;28;20351;-74
2020/12/22 10:50:53;;;;;;;2.15;1.10;;;14.40;82.40;;;;;;5039316;28;20457;-74
2020/12/22 10:53:18;;;;;;;1.90;1.20;;;14.40;82.40;;;;;;5031171;28;20136;-74
2020/12/22 10:55:44;;;;;;;1.83;1.00;;;14.40;82.30;;;;;;5031914;28;20056;-74
2020/12/22 10:58:10;;;;;;;2.42;1.20;;;14.40;83.00;;;;;;5030728;28;20044;-74
2020/12/22 11:00:37;;;;;;;1.58;1.02;;;14.40;82.30;;;;;;5047644;28;20037;-73
2020/12/22 11:03:06;;;;;;;2.10;1.40;;;14.40;83.00;;;;;;5044483;28;20508;-75
2020/12/22 11:08:18;;;;;;;3.05;1.25;;;14.40;82.30;;;;;;5041667;28;20037;-75
2020/12/22 11:10:44;;;;;;;2.10;1.35;;;14.40;82.30;;;;;;5024266;28;20033;-78
2020/12/22 11:13:09;;;;;;;4.18;1.50;;;14.40;82.30;;;;;;5026520;28;20038;-76
2020/12/22 11:15:35;;;;;;;2.28;1.40;;;14.40;82.30;;;;;;5038157;28;20026;-75
2020/12/22 11:18:01;;;;;;;3.35;1.63;;;14.40;82.30;;;;;;5041519;28;20051;-76
2020/12/22 11:20:26;;;;;;;2.22;1.30;;;14.40;82.30;;;;;;5032015;28;20508;-74
2020/12/22 11:22:52;;;;;;;2.47;1.35;;;14.40;82.30;;;;;;5033095;28;20053;-75
2020/12/22 11:25:18;;;;;;;2.58;1.40;;;14.40;82.30;;;;;;5042884;28;20036;-75
2020/12/22 11:27:45;;;;;;;1.48;1.25;;;14.40;82.30;;;;;;5045198;28;20506;-79
2020/12/22 11:30:10;;;;;;;2.30;1.20;;;14.40;82.30;;;;;;5041567;28;20035;-75
2020/12/22 11:32:36;;;;;;;2.75;1.27;;;14.40;82.30;;;;;;5032749;28;20477;-75
2020/12/22 11:35:07;;;;;;;2.85;1.75;;;14.40;82.20;;;;;;5039056;28;20045;-75
2020/12/22 11:37:33;;;;;;;3.25;1.50;;;14.50;82.30;;;;;;5051767;28;20056;-75
2020/12/22 11:39:59;;;;;;;2.15;1.40;;;14.40;82.30;;;;;;5041004;28;20017;-74
2020/12/22 11:42:25;;;;;;;1.65;1.10;;;14.40;82.30;;;;;;5041043;28;20458;-75
2020/12/22 11:44:50;;;;;;;2.25;1.20;;;14.40;82.30;;;;;;5002519;28;20474;-75
2020/12/22 11:47:16;;;;;;;1.75;1.10;;;14.40;82.30;;;;;;5026866;28;20030;-75
2020/12/22 11:49:42;;;;;;;1.95;1.17;;;14.50;82.30;;;;;;5033928;28;20115;-75
2020/12/22 11:52:10;;;;;;;1.63;1.10;;;14.40;82.30;;;;;;5042795;28;20045;-77
2020/12/22 11:54:36;;;;;;;2.00;1.08;;;14.40;82.30;;;;;;5047046;28;20040;-76
2020/12/22 11:57:05;;;;;;;1.52;1.00;;;14.50;82.40;;;;;;5043760;28;20059;-77
2020/12/22 11:59:34;;;;;;;2.60;1.02;;;14.50;82.40;;;;;;5034200;28;20021;-76
2020/12/22 12:02:06;;;;;;;3.97;1.30;;;14.50;82.30;;;;;;5041114;28;20037;-75
2020/12/22 12:04:32;;;;;;;1.25;0.85;;;14.50;82.30;;;;;;5041686;28;20099;-74
2020/12/22 12:06:58;;;;;;;1.27;1.00;;;14.50;82.40;;;;;;5034213;28;20037;-77
2020/12/22 12:09:24;;;;;;;1.60;0.98;;;14.50;82.30;;;;;;5034546;28;20397;-75
2020/12/22 12:11:50;;;;;;;1.00;0.90;;;14.50;82.40;;;;;;5033694;28;20045;-74
2020/12/22 12:14:18;;;;;;;1.50;1.10;;;14.50;82.40;;;;;;5041868;28;20030;-75
2020/12/22 12:16:47;;;;;;;0.90;0.90;;;14.50;82.40;;;;;;5045914;28;20481;-75
2020/12/22 12:19:14;;;;;;;0.90;0.90;;;14.50;82.40;;;;;;5042205;28;20091;-75
2020/12/22 12:21:40;;;;;;;1.73;0.95;;;14.50;82.40;;;;;;5019545;28;20469;-76
2020/12/22 12:24:07;;;;;;;2.08;1.10;;;14.40;82.40;;;;;;5046319;28;20508;-78
2020/12/22 12:26:33;;;;;;;1.33;0.93;;;14.50;82.40;;;;;;5049756;28;20037;-76
2020/12/22 12:28:59;;;;;;;1.20;0.88;;;14.40;82.40;;;;;;5060913;28;20036;-76
2020/12/22 12:31:26;;;;;;;0.95;0.80;;;14.40;82.30;;;;;;5043004;28;20043;-75
2020/12/22 12:33:53;;;;;;;0.77;0.77;;;14.40;82.30;;;;;;5037579;28;20504;-75
2020/12/22 12:36:19;;;;;;;0.70;0.70;;;14.40;82.30;;;;;;5032404;28;20029;-75
2020/12/22 12:38:44;;;;;;;1.02;0.90;;;14.50;82.40;;;;;;5049094;28;20052;-76
2020/12/22 12:41:11;;;;;;;0.98;0.90;;;14.40;82.30;;;;;;5047288;28;20350;-74
2020/12/22 12:43:38;;;;;;;0.90;0.90;;;14.40;83.00;;;;;;5038448;28;20545;-75
2020/12/22 12:46:08;;;;;;;1.13;0.77;;;14.40;82.40;;;;;;5043634;28;20025;-75
2020/12/22 12:48:34;;;;;;;1.10;0.90;;;14.40;82.50;;;;;;5049527;28;20084;-74
2020/12/22 12:51:00;;;;;;;1.10;1.00;;;14.40;82.50;;;;;;5034423;28;20029;-75
2020/12/22 12:53:26;;;;;;;1.20;1.02;;;14.40;82.50;;;;;;5041568;28;20033;-75